sensor_id;sensor_type;location;lat;lon;timestamp;P1;durP1;ratioP1;P2;durP2;ratioP2
76115;SDS011;64847;45.778;12.802;2023-05-14T00:02:08;1.90;;;1.80;;
76115;SDS011;64847;45.778;12.802;2023-05-14T00:04:34;2.00;;;1.90;;
76115;SDS011;64847;45.778;12.802;2023-05-14T00:06:59;2.33;;;2.23;;
76115;SDS011;64847;45.778;12.802;2023-05-14T00:09:25;2.00;;;1.90;;
76115;SDS011;64847;45.778;12.802;2023-05-14T00:11:50;1.93;;;1.83;;
76115;SDS011;64847;45.778;12.802;2023-05-14T00:14:16;2.10;;;2.00;;
76115;SDS011;64847;45.778;12.802;2023-05-14T00:16:41;2.20;;;2.00;;
76115;SDS011;64847;45.778;12.802;2023-05-14T00:19:07;1.97;;;1.87;;
76115;SDS011;64847;45.778;12.802;2023-05-14T00:21:32;3.07;;;1.77;;
76115;SDS011;64847;45.778;12.802;2023-05-14T00:23:58;1.80;;;1.70;;
76115;SDS011;64847;45.778;12.802;2023-05-14T00:26:23;1.80;;;1.70;;
76115;SDS011;64847;45.778;12.802;2023-05-14T00:28:48;2.07;;;1.97;;
76115;SDS011;64847;45.778;12.802;2023-05-14T00:31:14;2.00;;;1.90;;
76115;SDS011;64847;45.778;12.802;2023-05-14T00:33:39;2.37;;;2.27;;
76115;SDS011;64847;45.778;12.802;2023-05-14T00:36:05;2.37;;;2.27;;
76115;SDS011;64847;45.778;12.802;2023-05-14T00:38:31;2.13;;;2.00;;
76115;SDS011;64847;45.778;12.802;2023-05-14T00:40:56;2.10;;;2.00;;
76115;SDS011;64847;45.778;12.802;2023-05-14T00:43:22;2.33;;;2.17;;
76115;SDS011;64847;45.778;12.802;2023-05-14T00:45:51;2.17;;;2.00;;
76115;SDS011;64847;45.778;12.802;2023-05-14T00:48:18;1.90;;;1.80;;
76115;SDS011;64847;45.778;12.802;2023-05-14T00:50:44;1.70;;;1.60;;
76115;SDS011;64847;45.778;12.802;2023-05-14T00:53:10;1.93;;;1.73;;
76115;SDS011;64847;45.778;12.802;2023-05-14T00:55:36;1.53;;;1.43;;
76115;SDS011;64847;45.778;12.802;2023-05-14T00:58:03;1.60;;;1.60;;
76115;SDS011;64847;45.778;12.802;2023-05-14T01:00:37;2.30;;;1.73;;
76115;SDS011;64847;45.778;12.802;2023-05-14T01:03:03;1.53;;;1.43;;
76115;SDS011;64847;45.778;12.802;2023-05-14T01:05:31;1.63;;;1.53;;
76115;SDS011;64847;45.778;12.802;2023-05-14T01:10:57;1.40;;;1.30;;
76115;SDS011;64847;45.778;12.802;2023-05-14T01:16:12;1.60;;;1.50;;
76115;SDS011;64847;45.778;12.802;2023-05-14T01:18:39;1.40;;;1.40;;
76115;SDS011;64847;45.778;12.802;2023-05-14T01:21:17;1.50;;;1.40;;
76115;SDS011;64847;45.778;12.802;2023-05-14T01:23:49;1.30;;;1.30;;
76115;SDS011;64847;45.778;12.802;2023-05-14T01:26:15;1.43;;;1.33;;
76115;SDS011;64847;45.778;12.802;2023-05-14T01:28:40;2.37;;;1.30;;
76115;SDS011;64847;45.778;12.802;2023-05-14T01:31:08;1.30;;;1.30;;
76115;SDS011;64847;45.778;12.802;2023-05-14T01:33:36;1.37;;;1.37;;
76115;SDS011;64847;45.778;12.802;2023-05-14T01:36:04;1.53;;;1.50;;
76115;SDS011;64847;45.778;12.802;2023-05-14T01:38:30;1.27;;;1.00;;
76115;SDS011;64847;45.778;12.802;2023-05-14T01:40:58;1.50;;;1.40;;
76115;SDS011;64847;45.778;12.802;2023-05-14T01:43:24;1.60;;;1.50;;
76115;SDS011;64847;45.778;12.802;2023-05-14T01:45:49;1.43;;;1.33;;
76115;SDS011;64847;45.778;12.802;2023-05-14T01:48:15;1.80;;;1.20;;
76115;SDS011;64847;45.778;12.802;2023-05-14T01:50:40;1.63;;;1.40;;
76115;SDS011;64847;45.778;12.802;2023-05-14T01:53:06;1.03;;;1.03;;
76115;SDS011;64847;45.778;12.802;2023-05-14T01:55:31;1.17;;;1.10;;
76115;SDS011;64847;45.778;12.802;2023-05-14T01:57:56;1.10;;;1.10;;
76115;SDS011;64847;45.778;12.802;2023-05-14T02:00:22;1.23;;;1.10;;
76115;SDS011;64847;45.778;12.802;2023-05-14T02:02:51;1.43;;;1.33;;
76115;SDS011;64847;45.778;12.802;2023-05-14T02:05:17;2.20;;;1.23;;
76115;SDS011;64847;45.778;12.802;2023-05-14T02:07:42;1.00;;;1.00;;
76115;SDS011;64847;45.778;12.802;2023-05-14T02:10:08;0.90;;;0.90;;
76115;SDS011;64847;45.778;12.802;2023-05-14T02:12:34;1.60;;;1.03;;
76115;SDS011;64847;45.778;12.802;2023-05-14T02:14:59;1.00;;;1.00;;
76115;SDS011;64847;45.778;12.802;2023-05-14T02:17:25;1.10;;;1.10;;
76115;SDS011;64847;45.778;12.802;2023-05-14T02:19:50;1.50;;;1.00;;
76115;SDS011;64847;45.778;12.802;2023-05-14T02:22:16;0.97;;;0.97;;
76115;SDS011;64847;45.778;12.802;2023-05-14T02:24:41;1.50;;;1.07;;
76115;SDS011;64847;45.778;12.802;2023-05-14T02:27:06;1.23;;;1.13;;
76115;SDS011;64847;45.778;12.802;2023-05-14T02:29:32;1.20;;;1.20;;
76115;SDS011;64847;45.778;12.802;2023-05-14T02:31:57;0.90;;;0.90;;
76115;SDS011;64847;45.778;12.802;2023-05-14T02:34:23;1.00;;;0.90;;
76115;SDS011;64847;45.778;12.802;2023-05-14T02:36:48;1.00;;;1.00;;
76115;SDS011;64847;45.778;12.802;2023-05-14T02:39:14;1.20;;;1.20;;
76115;SDS011;64847;45.778;12.802;2023-05-14T02:41:39;1.03;;;1.00;;
76115;SDS011;64847;45.778;12.802;2023-05-14T02:44:05;1.00;;;1.00;;
76115;SDS011;64847;45.778;12.802;2023-05-14T02:46:30;1.00;;;1.00;;
76115;SDS011;64847;45.778;12.802;2023-05-14T02:48:56;1.53;;;0.97;;
76115;SDS011;64847;45.778;12.802;2023-05-14T02:51:21;1.40;;;1.00;;
76115;SDS011;64847;45.778;12.802;2023-05-14T02:53:47;1.00;;;1.00;;
76115;SDS011;64847;45.778;12.802;2023-05-14T02:56:12;1.10;;;0.90;;
76115;SDS011;64847;45.778;12.802;2023-05-14T02:58:38;1.27;;;1.17;;
76115;SDS011;64847;45.778;12.802;2023-05-14T03:01:03;1.13;;;1.07;;
76115;SDS011;64847;45.778;12.802;2023-05-14T03:03:29;2.00;;;1.03;;
76115;SDS011;64847;45.778;12.802;2023-05-14T03:05:54;0.90;;;0.90;;
76115;SDS011;64847;45.778;12.802;2023-05-14T03:08:20;1.37;;;1.23;;
76115;SDS011;64847;45.778;12.802;2023-05-14T03:10:45;1.07;;;1.07;;
76115;SDS011;64847;45.778;12.802;2023-05-14T03:13:11;1.97;;;1.23;;
76115;SDS011;64847;45.778;12.802;2023-05-14T03:15:36;1.33;;;0.90;;
76115;SDS011;64847;45.778;12.802;2023-05-14T03:18:02;1.00;;;1.00;;
76115;SDS011;64847;45.778;12.802;2023-05-14T03:20:27;1.00;;;1.00;;
76115;SDS011;64847;45.778;12.802;2023-05-14T03:22:53;0.80;;;0.80;;
76115;SDS011;64847;45.778;12.802;2023-05-14T03:25:20;0.90;;;0.90;;
76115;SDS011;64847;45.778;12.802;2023-05-14T03:27:45;0.90;;;0.90;;
76115;SDS011;64847;45.778;12.802;2023-05-14T03:30:10;1.10;;;1.00;;
76115;SDS011;64847;45.778;12.802;2023-05-14T03:32:36;0.87;;;0.87;;
76115;SDS011;64847;45.778;12.802;2023-05-14T03:35:02;0.80;;;0.80;;
76115;SDS011;64847;45.778;12.802;2023-05-14T03:37:27;0.70;;;0.70;;
76115;SDS011;64847;45.778;12.802;2023-05-14T03:39:52;1.50;;;0.90;;
76115;SDS011;64847;45.778;12.802;2023-05-14T03:42:18;1.17;;;0.93;;
76115;SDS011;64847;45.778;12.802;2023-05-14T03:44:43;0.70;;;0.70;;
76115;SDS011;64847;45.778;12.802;2023-05-14T03:47:09;0.70;;;0.70;;
76115;SDS011;64847;45.778;12.802;2023-05-14T03:49:34;0.70;;;0.70;;
76115;SDS011;64847;45.778;12.802;2023-05-14T03:52:00;0.70;;;0.70;;
76115;SDS011;64847;45.778;12.802;2023-05-14T03:54:25;0.70;;;0.70;;
76115;SDS011;64847;45.778;12.802;2023-05-14T03:56:51;0.90;;;0.87;;
76115;SDS011;64847;45.778;12.802;2023-05-14T03:59:16;0.67;;;0.67;;
76115;SDS011;64847;45.778;12.802;2023-05-14T04:01:42;1.40;;;0.87;;
76115;SDS011;64847;45.778;12.802;2023-05-14T04:04:08;1.00;;;1.00;;
76115;SDS011;64847;45.778;12.802;2023-05-14T04:06:33;0.87;;;0.87;;
76115;SDS011;64847;45.778;12.802;2023-05-14T04:08:58;0.80;;;0.80;;
76115;SDS011;64847;45.778;12.802;2023-05-14T04:11:24;0.93;;;0.93;;
76115;SDS011;64847;45.778;12.802;2023-05-14T04:13:49;1.00;;;0.90;;
76115;SDS011;64847;45.778;12.802;2023-05-14T04:16:15;0.80;;;0.80;;
76115;SDS011;64847;45.778;12.802;2023-05-14T04:18:40;1.00;;;1.00;;
76115;SDS011;64847;45.778;12.802;2023-05-14T04:21:05;0.97;;;0.97;;
76115;SDS011;64847;45.778;12.802;2023-05-14T04:23:31;0.90;;;0.90;;
76115;SDS011;64847;45.778;12.802;2023-05-14T04:25:56;1.00;;;1.00;;
76115;SDS011;64847;45.778;12.802;2023-05-14T04:28:22;1.00;;;1.00;;
76115;SDS011;64847;45.778;12.802;2023-05-14T04:30:48;1.10;;;1.10;;
76115;SDS011;64847;45.778;12.802;2023-05-14T04:33:13;1.50;;;1.40;;
76115;SDS011;64847;45.778;12.802;2023-05-14T04:35:39;1.23;;;1.13;;
76115;SDS011;64847;45.778;12.802;2023-05-14T04:38:04;1.00;;;1.00;;
76115;SDS011;64847;45.778;12.802;2023-05-14T04:40:30;1.60;;;1.50;;
76115;SDS011;64847;45.778;12.802;2023-05-14T04:42:55;1.60;;;1.23;;
76115;SDS011;64847;45.778;12.802;2023-05-14T04:45:21;1.40;;;1.30;;
76115;SDS011;64847;45.778;12.802;2023-05-14T04:47:46;2.40;;;1.43;;
76115;SDS011;64847;45.778;12.802;2023-05-14T04:50:12;1.67;;;1.20;;
76115;SDS011;64847;45.778;12.802;2023-05-14T04:52:38;1.53;;;1.40;;
76115;SDS011;64847;45.778;12.802;2023-05-14T04:55:03;1.40;;;1.40;;
76115;SDS011;64847;45.778;12.802;2023-05-14T04:57:29;1.53;;;1.43;;
76115;SDS011;64847;45.778;12.802;2023-05-14T04:59:54;1.30;;;1.30;;
76115;SDS011;64847;45.778;12.802;2023-05-14T05:02:20;1.70;;;1.60;;
76115;SDS011;64847;45.778;12.802;2023-05-14T05:04:45;1.40;;;1.30;;
76115;SDS011;64847;45.778;12.802;2023-05-14T05:07:11;1.60;;;1.50;;
76115;SDS011;64847;45.778;12.802;2023-05-14T05:09:37;1.33;;;1.33;;
76115;SDS011;64847;45.778;12.802;2023-05-14T05:12:02;1.40;;;1.40;;
76115;SDS011;64847;45.778;12.802;2023-05-14T05:14:28;1.60;;;1.50;;
76115;SDS011;64847;45.778;12.802;2023-05-14T05:16:54;1.20;;;1.20;;
76115;SDS011;64847;45.778;12.802;2023-05-14T05:19:19;1.30;;;1.30;;
76115;SDS011;64847;45.778;12.802;2023-05-14T05:21:44;1.43;;;1.40;;
76115;SDS011;64847;45.778;12.802;2023-05-14T05:24:10;1.20;;;1.20;;
76115;SDS011;64847;45.778;12.802;2023-05-14T05:26:36;1.10;;;1.10;;
76115;SDS011;64847;45.778;12.802;2023-05-14T05:29:02;1.33;;;1.30;;
76115;SDS011;64847;45.778;12.802;2023-05-14T05:31:28;1.17;;;1.07;;
76115;SDS011;64847;45.778;12.802;2023-05-14T05:33:53;1.27;;;1.27;;
76115;SDS011;64847;45.778;12.802;2023-05-14T05:36:19;1.37;;;1.37;;
76115;SDS011;64847;45.778;12.802;2023-05-14T05:38:44;2.97;;;1.50;;
76115;SDS011;64847;45.778;12.802;2023-05-14T05:41:09;1.67;;;1.53;;
76115;SDS011;64847;45.778;12.802;2023-05-14T05:43:35;1.50;;;1.40;;
76115;SDS011;64847;45.778;12.802;2023-05-14T05:46:00;1.20;;;1.20;;
76115;SDS011;64847;45.778;12.802;2023-05-14T05:48:26;1.30;;;1.30;;
76115;SDS011;64847;45.778;12.802;2023-05-14T05:50:51;1.33;;;1.23;;
76115;SDS011;64847;45.778;12.802;2023-05-14T05:53:16;1.10;;;1.10;;
76115;SDS011;64847;45.778;12.802;2023-05-14T05:55:42;0.97;;;0.97;;
76115;SDS011;64847;45.778;12.802;2023-05-14T05:58:08;1.03;;;1.03;;
76115;SDS011;64847;45.778;12.802;2023-05-14T06:00:33;1.10;;;1.10;;
76115;SDS011;64847;45.778;12.802;2023-05-14T06:02:58;1.00;;;1.00;;
76115;SDS011;64847;45.778;12.802;2023-05-14T06:05:24;1.00;;;1.00;;
76115;SDS011;64847;45.778;12.802;2023-05-14T06:07:49;1.00;;;1.00;;
76115;SDS011;64847;45.778;12.802;2023-05-14T06:10:15;0.80;;;0.80;;
76115;SDS011;64847;45.778;12.802;2023-05-14T06:12:41;1.43;;;1.20;;
76115;SDS011;64847;45.778;12.802;2023-05-14T06:15:06;0.90;;;0.90;;
76115;SDS011;64847;45.778;12.802;2023-05-14T06:17:32;1.03;;;1.00;;
76115;SDS011;64847;45.778;12.802;2023-05-14T06:19:57;1.20;;;1.10;;
76115;SDS011;64847;45.778;12.802;2023-05-14T06:22:23;1.17;;;1.17;;
76115;SDS011;64847;45.778;12.802;2023-05-14T06:24:48;1.37;;;1.23;;
76115;SDS011;64847;45.778;12.802;2023-05-14T06:27:13;1.43;;;1.40;;
76115;SDS011;64847;45.778;12.802;2023-05-14T06:29:39;1.33;;;1.30;;
76115;SDS011;64847;45.778;12.802;2023-05-14T06:32:04;1.37;;;1.37;;
76115;SDS011;64847;45.778;12.802;2023-05-14T06:34:30;1.40;;;1.30;;
76115;SDS011;64847;45.778;12.802;2023-05-14T06:36:56;1.40;;;1.40;;
76115;SDS011;64847;45.778;12.802;2023-05-14T06:39:21;1.40;;;1.30;;
76115;SDS011;64847;45.778;12.802;2023-05-14T06:41:48;1.70;;;1.60;;
76115;SDS011;64847;45.778;12.802;2023-05-14T06:44:13;2.13;;;1.93;;
76115;SDS011;64847;45.778;12.802;2023-05-14T06:46:39;2.60;;;2.20;;
76115;SDS011;64847;45.778;12.802;2023-05-14T06:49:05;2.17;;;2.07;;
76115;SDS011;64847;45.778;12.802;2023-05-14T06:51:30;3.10;;;2.80;;
76115;SDS011;64847;45.778;12.802;2023-05-14T06:53:56;4.13;;;3.73;;
76115;SDS011;64847;45.778;12.802;2023-05-14T06:56:22;4.70;;;4.27;;
76115;SDS011;64847;45.778;12.802;2023-05-14T06:58:47;4.80;;;4.00;;
76115;SDS011;64847;45.778;12.802;2023-05-14T07:01:12;3.73;;;3.43;;
76115;SDS011;64847;45.778;12.802;2023-05-14T07:03:38;2.90;;;2.70;;
76115;SDS011;64847;45.778;12.802;2023-05-14T07:06:03;3.50;;;3.20;;
76115;SDS011;64847;45.778;12.802;2023-05-14T07:08:29;2.70;;;2.50;;
76115;SDS011;64847;45.778;12.802;2023-05-14T07:10:54;2.63;;;2.43;;
76115;SDS011;64847;45.778;12.802;2023-05-14T07:13:21;2.23;;;2.03;;
76115;SDS011;64847;45.778;12.802;2023-05-14T07:15:47;4.20;;;3.80;;
76115;SDS011;64847;45.778;12.802;2023-05-14T07:18:12;4.27;;;3.87;;
76115;SDS011;64847;45.778;12.802;2023-05-14T07:20:38;4.30;;;3.43;;
76115;SDS011;64847;45.778;12.802;2023-05-14T07:23:03;3.43;;;2.80;;
76115;SDS011;64847;45.778;12.802;2023-05-14T07:25:28;3.10;;;2.80;;
76115;SDS011;64847;45.778;12.802;2023-05-14T07:27:54;4.13;;;3.43;;
76115;SDS011;64847;45.778;12.802;2023-05-14T07:30:19;3.47;;;3.13;;
76115;SDS011;64847;45.778;12.802;2023-05-14T07:32:45;3.07;;;2.80;;
76115;SDS011;64847;45.778;12.802;2023-05-14T07:35:10;2.70;;;2.50;;
76115;SDS011;64847;45.778;12.802;2023-05-14T07:37:36;3.13;;;2.93;;
76115;SDS011;64847;45.778;12.802;2023-05-14T07:40:01;3.30;;;2.97;;
76115;SDS011;64847;45.778;12.802;2023-05-14T07:42:27;3.30;;;3.10;;
76115;SDS011;64847;45.778;12.802;2023-05-14T07:44:52;4.50;;;2.57;;
76115;SDS011;64847;45.778;12.802;2023-05-14T07:47:18;2.57;;;2.47;;
76115;SDS011;64847;45.778;12.802;2023-05-14T07:49:43;3.43;;;3.13;;
76115;SDS011;64847;45.778;12.802;2023-05-14T07:52:08;4.47;;;4.00;;
76115;SDS011;64847;45.778;12.802;2023-05-14T07:54:34;6.10;;;3.93;;
76115;SDS011;64847;45.778;12.802;2023-05-14T07:56:59;3.27;;;2.97;;
76115;SDS011;64847;45.778;12.802;2023-05-14T07:59:25;4.30;;;3.20;;
76115;SDS011;64847;45.778;12.802;2023-05-14T08:01:50;5.07;;;3.30;;
76115;SDS011;64847;45.778;12.802;2023-05-14T08:04:15;3.40;;;3.03;;
76115;SDS011;64847;45.778;12.802;2023-05-14T08:06:41;4.00;;;3.60;;
76115;SDS011;64847;45.778;12.802;2023-05-14T08:09:07;3.27;;;2.97;;
76115;SDS011;64847;45.778;12.802;2023-05-14T08:11:33;3.80;;;3.03;;
76115;SDS011;64847;45.778;12.802;2023-05-14T08:13:59;2.37;;;2.17;;
76115;SDS011;64847;45.778;12.802;2023-05-14T08:16:24;2.53;;;2.33;;
76115;SDS011;64847;45.778;12.802;2023-05-14T08:18:50;2.47;;;2.17;;
76115;SDS011;64847;45.778;12.802;2023-05-14T08:21:15;2.20;;;2.00;;
76115;SDS011;64847;45.778;12.802;2023-05-14T08:23:41;2.17;;;2.07;;
76115;SDS011;64847;45.778;12.802;2023-05-14T08:26:07;3.90;;;1.97;;
76115;SDS011;64847;45.778;12.802;2023-05-14T08:28:32;2.17;;;2.07;;
76115;SDS011;64847;45.778;12.802;2023-05-14T08:30:58;2.23;;;2.13;;
76115;SDS011;64847;45.778;12.802;2023-05-14T08:33:23;2.30;;;2.10;;
76115;SDS011;64847;45.778;12.802;2023-05-14T08:35:50;3.07;;;2.80;;
76115;SDS011;64847;45.778;12.802;2023-05-14T08:38:17;3.00;;;2.70;;
76115;SDS011;64847;45.778;12.802;2023-05-14T08:40:46;2.27;;;2.13;;
76115;SDS011;64847;45.778;12.802;2023-05-14T08:43:18;1.90;;;1.67;;
76115;SDS011;64847;45.778;12.802;2023-05-14T08:45:44;1.80;;;1.70;;
76115;SDS011;64847;45.778;12.802;2023-05-14T08:48:10;2.00;;;1.90;;
76115;SDS011;64847;45.778;12.802;2023-05-14T08:50:37;2.70;;;2.30;;
76115;SDS011;64847;45.778;12.802;2023-05-14T08:53:03;3.60;;;2.80;;
76115;SDS011;64847;45.778;12.802;2023-05-14T08:55:29;2.93;;;2.60;;
76115;SDS011;64847;45.778;12.802;2023-05-14T08:57:56;4.10;;;2.33;;
76115;SDS011;64847;45.778;12.802;2023-05-14T09:00:22;2.90;;;2.70;;
76115;SDS011;64847;45.778;12.802;2023-05-14T09:02:48;2.97;;;2.37;;
76115;SDS011;64847;45.778;12.802;2023-05-14T09:05:14;2.20;;;2.10;;
76115;SDS011;64847;45.778;12.802;2023-05-14T09:07:41;3.00;;;2.27;;
76115;SDS011;64847;45.778;12.802;2023-05-14T09:10:06;4.67;;;3.10;;
76115;SDS011;64847;45.778;12.802;2023-05-14T09:12:33;2.67;;;2.47;;
76115;SDS011;64847;45.778;12.802;2023-05-14T09:14:58;2.47;;;2.30;;
76115;SDS011;64847;45.778;12.802;2023-05-14T09:17:24;3.87;;;3.03;;
76115;SDS011;64847;45.778;12.802;2023-05-14T09:19:51;2.97;;;2.47;;
76115;SDS011;64847;45.778;12.802;2023-05-14T09:22:17;3.77;;;2.43;;
76115;SDS011;64847;45.778;12.802;2023-05-14T09:24:43;2.47;;;2.20;;
76115;SDS011;64847;45.778;12.802;2023-05-14T09:27:14;1.80;;;1.70;;
76115;SDS011;64847;45.778;12.802;2023-05-14T09:29:43;2.37;;;1.50;;
76115;SDS011;64847;45.778;12.802;2023-05-14T09:32:09;1.80;;;1.70;;
76115;SDS011;64847;45.778;12.802;2023-05-14T09:34:34;2.10;;;1.90;;
76115;SDS011;64847;45.778;12.802;2023-05-14T09:37:05;1.70;;;1.60;;
76115;SDS011;64847;45.778;12.802;2023-05-14T09:39:32;1.80;;;1.70;;
76115;SDS011;64847;45.778;12.802;2023-05-14T09:41:58;1.87;;;1.43;;
76115;SDS011;64847;45.778;12.802;2023-05-14T09:44:24;2.23;;;1.77;;
76115;SDS011;64847;45.778;12.802;2023-05-14T09:46:50;1.53;;;1.50;;
76115;SDS011;64847;45.778;12.802;2023-05-14T09:49:16;1.50;;;1.50;;
76115;SDS011;64847;45.778;12.802;2023-05-14T09:51:42;1.47;;;1.37;;
76115;SDS011;64847;45.778;12.802;2023-05-14T09:54:08;1.53;;;1.37;;
76115;SDS011;64847;45.778;12.802;2023-05-14T09:56:33;1.83;;;1.73;;
76115;SDS011;64847;45.778;12.802;2023-05-14T09:59:00;2.00;;;1.90;;
76115;SDS011;64847;45.778;12.802;2023-05-14T10:01:25;3.03;;;1.90;;
76115;SDS011;64847;45.778;12.802;2023-05-14T10:03:52;2.70;;;2.20;;
76115;SDS011;64847;45.778;12.802;2023-05-14T10:06:20;2.67;;;1.87;;
76115;SDS011;64847;45.778;12.802;2023-05-14T10:08:48;2.07;;;1.87;;
76115;SDS011;64847;45.778;12.802;2023-05-14T10:11:18;1.47;;;1.40;;
76115;SDS011;64847;45.778;12.802;2023-05-14T10:13:47;1.70;;;1.60;;
76115;SDS011;64847;45.778;12.802;2023-05-14T10:16:26;1.60;;;1.50;;
76115;SDS011;64847;45.778;12.802;2023-05-14T10:18:58;1.50;;;1.43;;
76115;SDS011;64847;45.778;12.802;2023-05-14T10:21:25;1.90;;;1.80;;
76115;SDS011;64847;45.778;12.802;2023-05-14T10:23:52;1.90;;;1.67;;
76115;SDS011;64847;45.778;12.802;2023-05-14T10:26:19;1.77;;;1.67;;
76115;SDS011;64847;45.778;12.802;2023-05-14T10:28:45;1.90;;;1.80;;
76115;SDS011;64847;45.778;12.802;2023-05-14T10:31:11;1.70;;;1.60;;
76115;SDS011;64847;45.778;12.802;2023-05-14T10:33:47;1.70;;;1.60;;
76115;SDS011;64847;45.778;12.802;2023-05-14T10:36:14;2.10;;;1.90;;
76115;SDS011;64847;45.778;12.802;2023-05-14T10:38:41;2.90;;;2.70;;
76115;SDS011;64847;45.778;12.802;2023-05-14T10:41:10;3.20;;;2.90;;
76115;SDS011;64847;45.778;12.802;2023-05-14T10:43:37;2.70;;;2.50;;
76115;SDS011;64847;45.778;12.802;2023-05-14T10:46:04;2.80;;;2.60;;
76115;SDS011;64847;45.778;12.802;2023-05-14T10:48:30;2.20;;;2.10;;
76115;SDS011;64847;45.778;12.802;2023-05-14T10:50:57;2.10;;;2.00;;
76115;SDS011;64847;45.778;12.802;2023-05-14T10:53:32;2.73;;;1.60;;
76115;SDS011;64847;45.778;12.802;2023-05-14T10:56:05;2.07;;;1.80;;
76115;SDS011;64847;45.778;12.802;2023-05-14T10:58:42;1.90;;;1.80;;
76115;SDS011;64847;45.778;12.802;2023-05-14T11:01:09;1.90;;;1.70;;
76115;SDS011;64847;45.778;12.802;2023-05-14T11:03:39;1.37;;;1.37;;
76115;SDS011;64847;45.778;12.802;2023-05-14T11:06:06;1.40;;;1.40;;
76115;SDS011;64847;45.778;12.802;2023-05-14T11:08:33;1.40;;;1.30;;
76115;SDS011;64847;45.778;12.802;2023-05-14T11:10:59;1.53;;;1.43;;
76115;SDS011;64847;45.778;12.802;2023-05-14T11:13:25;1.80;;;1.70;;
76115;SDS011;64847;45.778;12.802;2023-05-14T11:15:51;2.00;;;1.53;;
76115;SDS011;64847;45.778;12.802;2023-05-14T11:18:29;1.53;;;1.47;;
76115;SDS011;64847;45.778;12.802;2023-05-14T11:21:00;1.60;;;1.50;;
76115;SDS011;64847;45.778;12.802;2023-05-14T11:23:26;1.70;;;1.60;;
76115;SDS011;64847;45.778;12.802;2023-05-14T11:25:52;1.60;;;1.50;;
76115;SDS011;64847;45.778;12.802;2023-05-14T11:28:24;1.23;;;1.23;;
76115;SDS011;64847;45.778;12.802;2023-05-14T11:30:50;1.67;;;1.57;;
76115;SDS011;64847;45.778;12.802;2023-05-14T11:33:16;2.80;;;1.43;;
76115;SDS011;64847;45.778;12.802;2023-05-14T11:35:42;1.37;;;1.27;;
76115;SDS011;64847;45.778;12.802;2023-05-14T11:38:19;1.70;;;1.60;;
76115;SDS011;64847;45.778;12.802;2023-05-14T11:40:54;1.43;;;1.40;;
76115;SDS011;64847;45.778;12.802;2023-05-14T11:43:21;1.47;;;1.37;;
76115;SDS011;64847;45.778;12.802;2023-05-14T11:45:52;1.80;;;1.70;;
76115;SDS011;64847;45.778;12.802;2023-05-14T11:48:19;2.20;;;1.50;;
76115;SDS011;64847;45.778;12.802;2023-05-14T11:50:48;1.43;;;1.33;;
76115;SDS011;64847;45.778;12.802;2023-05-14T11:53:15;1.60;;;1.40;;
76115;SDS011;64847;45.778;12.802;2023-05-14T11:55:46;1.43;;;1.40;;
76115;SDS011;64847;45.778;12.802;2023-05-14T11:58:12;1.37;;;1.37;;
76115;SDS011;64847;45.778;12.802;2023-05-14T12:00:37;1.40;;;1.30;;
76115;SDS011;64847;45.778;12.802;2023-05-14T12:03:04;1.57;;;1.47;;
76115;SDS011;64847;45.778;12.802;2023-05-14T12:05:29;1.70;;;1.60;;
76115;SDS011;64847;45.778;12.802;2023-05-14T12:07:55;1.50;;;1.50;;
76115;SDS011;64847;45.778;12.802;2023-05-14T12:10:20;1.40;;;1.40;;
76115;SDS011;64847;45.778;12.802;2023-05-14T12:12:46;1.97;;;1.50;;
76115;SDS011;64847;45.778;12.802;2023-05-14T12:15:13;1.63;;;1.53;;
76115;SDS011;64847;45.778;12.802;2023-05-14T12:17:40;1.20;;;1.20;;
76115;SDS011;64847;45.778;12.802;2023-05-14T12:20:09;1.33;;;1.30;;
76115;SDS011;64847;45.778;12.802;2023-05-14T12:22:35;2.23;;;1.90;;
76115;SDS011;64847;45.778;12.802;2023-05-14T12:25:00;2.03;;;1.80;;
76115;SDS011;64847;45.778;12.802;2023-05-14T12:27:26;1.80;;;1.70;;
76115;SDS011;64847;45.778;12.802;2023-05-14T12:30:03;1.58;;;1.55;;
76115;SDS011;64847;45.778;12.802;2023-05-14T12:32:32;1.20;;;1.20;;
76115;SDS011;64847;45.778;12.802;2023-05-14T12:34:58;1.70;;;1.52;;
76115;SDS011;64847;45.778;12.802;2023-05-14T12:37:25;1.55;;;1.45;;
76115;SDS011;64847;45.778;12.802;2023-05-14T12:39:51;1.25;;;1.25;;
76115;SDS011;64847;45.778;12.802;2023-05-14T12:42:17;1.40;;;1.35;;
76115;SDS011;64847;45.778;12.802;2023-05-14T12:44:42;1.40;;;1.40;;
76115;SDS011;64847;45.778;12.802;2023-05-14T12:47:07;1.20;;;1.20;;
76115;SDS011;64847;45.778;12.802;2023-05-14T12:49:33;1.10;;;1.10;;
76115;SDS011;64847;45.778;12.802;2023-05-14T12:51:58;1.25;;;1.25;;
76115;SDS011;64847;45.778;12.802;2023-05-14T12:54:24;1.17;;;1.17;;
76115;SDS011;64847;45.778;12.802;2023-05-14T12:56:49;1.00;;;0.90;;
76115;SDS011;64847;45.778;12.802;2023-05-14T12:59:15;0.80;;;0.80;;
76115;SDS011;64847;45.778;12.802;2023-05-14T13:01:40;0.90;;;0.90;;
76115;SDS011;64847;45.778;12.802;2023-05-14T13:04:06;0.80;;;0.80;;
76115;SDS011;64847;45.778;12.802;2023-05-14T13:06:33;0.90;;;0.90;;
76115;SDS011;64847;45.778;12.802;2023-05-14T13:08:58;0.80;;;0.80;;
76115;SDS011;64847;45.778;12.802;2023-05-14T13:11:25;1.35;;;1.30;;
76115;SDS011;64847;45.778;12.802;2023-05-14T13:13:53;1.20;;;1.20;;
76115;SDS011;64847;45.778;12.802;2023-05-14T13:16:19;1.10;;;1.10;;
76115;SDS011;64847;45.778;12.802;2023-05-14T13:18:44;1.00;;;1.00;;
76115;SDS011;64847;45.778;12.802;2023-05-14T13:21:09;1.00;;;1.00;;
76115;SDS011;64847;45.778;12.802;2023-05-14T13:23:36;1.00;;;1.00;;
76115;SDS011;64847;45.778;12.802;2023-05-14T13:26:02;1.40;;;1.30;;
76115;SDS011;64847;45.778;12.802;2023-05-14T13:28:27;1.20;;;1.20;;
76115;SDS011;64847;45.778;12.802;2023-05-14T13:31:03;1.30;;;1.20;;
76115;SDS011;64847;45.778;12.802;2023-05-14T13:33:36;1.20;;;1.20;;
76115;SDS011;64847;45.778;12.802;2023-05-14T13:36:06;1.27;;;1.27;;
76115;SDS011;64847;45.778;12.802;2023-05-14T13:38:32;1.10;;;1.10;;
76115;SDS011;64847;45.778;12.802;2023-05-14T13:40:57;1.23;;;1.13;;
76115;SDS011;64847;45.778;12.802;2023-05-14T13:43:26;1.00;;;1.00;;
76115;SDS011;64847;45.778;12.802;2023-05-14T13:45:58;0.97;;;0.97;;
76115;SDS011;64847;45.778;12.802;2023-05-14T13:48:24;1.40;;;1.30;;
76115;SDS011;64847;45.778;12.802;2023-05-14T13:50:49;1.30;;;1.20;;
76115;SDS011;64847;45.778;12.802;2023-05-14T13:53:19;1.53;;;1.43;;
76115;SDS011;64847;45.778;12.802;2023-05-14T13:55:46;1.40;;;1.30;;
76115;SDS011;64847;45.778;12.802;2023-05-14T13:58:11;1.30;;;1.30;;
76115;SDS011;64847;45.778;12.802;2023-05-14T14:00:37;1.70;;;1.60;;
76115;SDS011;64847;45.778;12.802;2023-05-14T14:03:02;1.40;;;1.30;;
76115;SDS011;64847;45.778;12.802;2023-05-14T14:05:28;1.23;;;1.23;;
76115;SDS011;64847;45.778;12.802;2023-05-14T14:07:53;1.70;;;1.63;;
76115;SDS011;64847;45.778;12.802;2023-05-14T14:10:20;2.00;;;1.90;;
76115;SDS011;64847;45.778;12.802;2023-05-14T14:12:45;2.27;;;2.17;;
76115;SDS011;64847;45.778;12.802;2023-05-14T14:15:11;3.20;;;3.00;;
76115;SDS011;64847;45.778;12.802;2023-05-14T14:17:37;4.07;;;3.77;;
76115;SDS011;64847;45.778;12.802;2023-05-14T14:20:03;5.27;;;4.87;;
76115;SDS011;64847;45.778;12.802;2023-05-14T14:22:30;5.83;;;5.33;;
76115;SDS011;64847;45.778;12.802;2023-05-14T14:24:55;4.23;;;3.93;;
76115;SDS011;64847;45.778;12.802;2023-05-14T14:27:21;3.10;;;2.90;;
76115;SDS011;64847;45.778;12.802;2023-05-14T14:29:46;2.50;;;2.40;;
76115;SDS011;64847;45.778;12.802;2023-05-14T14:32:11;2.00;;;1.90;;
76115;SDS011;64847;45.778;12.802;2023-05-14T14:34:37;1.63;;;1.53;;